createdAt,value
2017-10-09T00:01:02.303Z,14.23
2017-10-09T00:03:30.081Z,14.17
2017-10-09T00:05:57.641Z,13.37
2017-10-09T00:08:25.197Z,12.60
2017-10-09T00:10:52.825Z,12.07
2017-10-09T00:13:20.386Z,12.70
2017-10-09T00:15:48.002Z,13.10
2017-10-09T00:18:16.392Z,14.00
2017-10-09T00:20:44.009Z,12.43
2017-10-09T00:23:12.832Z,12.73
2017-10-09T00:25:40.468Z,12.50
2017-10-09T00:28:08.081Z,11.90
2017-10-09T00:30:35.703Z,12.70
2017-10-09T00:33:03.341Z,11.63
2017-10-09T00:35:30.910Z,12.00
2017-10-09T00:37:58.493Z,12.43
2017-10-09T00:40:26.139Z,12.40
2017-10-09T00:42:53.745Z,13.07
2017-10-09T00:45:21.307Z,12.93
2017-10-09T00:47:48.924Z,13.43
2017-10-09T00:50:16.538Z,11.27
2017-10-09T00:52:44.134Z,12.83
2017-10-09T00:55:12.569Z,12.47
2017-10-09T00:57:40.181Z,12.47
2017-10-09T01:00:07.800Z,12.90
2017-10-09T01:02:35.441Z,12.67
2017-10-09T01:05:03.009Z,12.80
2017-10-09T01:07:30.589Z,12.70
2017-10-09T01:09:58.185Z,11.63
2017-10-09T01:12:25.777Z,11.10
2017-10-09T01:14:53.373Z,11.43
2017-10-09T01:17:20.961Z,11.90
2017-10-09T01:19:48.601Z,11.30
2017-10-09T01:22:16.781Z,11.87
2017-10-09T01:24:44.576Z,10.97
2017-10-09T01:27:12.183Z,11.20
2017-10-09T01:29:39.746Z,11.43
2017-10-09T01:32:07.352Z,11.00
2017-10-09T01:34:34.917Z,12.50
2017-10-09T01:37:02.501Z,10.90
2017-10-09T01:39:30.364Z,12.20
2017-10-09T01:41:57.957Z,11.60
2017-10-09T01:44:25.517Z,11.30
2017-10-09T01:46:53.582Z,11.07
2017-10-09T01:49:21.164Z,12.77
2017-10-09T01:51:48.747Z,11.20
2017-10-09T01:54:16.337Z,12.80
2017-10-09T01:56:43.957Z,12.07
2017-10-09T01:59:11.525Z,11.30
2017-10-09T02:01:39.121Z,11.80
2017-10-09T02:04:06.702Z,11.93
2017-10-09T02:06:34.269Z,12.60
2017-10-09T02:09:01.872Z,11.63
2017-10-09T02:11:29.441Z,11.07
2017-10-09T02:13:57.021Z,11.00
2017-10-09T02:16:24.644Z,10.10
2017-10-09T02:18:52.208Z,11.77
2017-10-09T02:21:19.763Z,11.67
2017-10-09T02:23:47.381Z,11.00
2017-10-09T02:26:14.944Z,11.13
2017-10-09T02:28:42.525Z,10.87
2017-10-09T02:31:10.112Z,10.57
2017-10-09T02:33:37.681Z,10.17
2017-10-09T02:36:06.045Z,11.50
2017-10-09T02:38:33.663Z,11.43
2017-10-09T02:41:01.256Z,11.30
2017-10-09T02:43:28.844Z,11.90
2017-10-09T02:45:56.462Z,10.90
2017-10-09T02:48:24.021Z,11.33
2017-10-09T02:50:51.601Z,10.90
2017-10-09T02:53:19.185Z,11.30
2017-10-09T02:55:46.772Z,10.20
2017-10-09T02:58:14.341Z,10.23
2017-10-09T03:00:41.988Z,10.97
2017-10-09T03:03:09.569Z,9.93
2017-10-09T03:05:37.125Z,10.30
2017-10-09T03:08:04.735Z,10.50
2017-10-09T03:10:32.321Z,10.10
2017-10-09T03:12:59.905Z,10.37
2017-10-09T03:15:27.515Z,10.70
2017-10-09T03:17:55.101Z,10.60
2017-10-09T03:20:22.725Z,10.20
2017-10-09T03:22:56.205Z,9.77
2017-10-09T03:25:33.712Z,9.90
2017-10-09T03:28:04.778Z,9.90
2017-10-09T03:30:32.533Z,10.30
2017-10-09T03:33:00.092Z,9.80
2017-10-09T03:35:27.701Z,11.53
2017-10-09T03:37:55.322Z,9.83
2017-10-09T03:40:23.200Z,10.20
2017-10-09T03:42:50.785Z,9.60
2017-10-09T03:45:18.398Z,9.77
2017-10-09T03:47:45.981Z,11.30
2017-10-09T03:50:13.568Z,10.27
2017-10-09T03:52:41.697Z,10.30
2017-10-09T03:55:09.301Z,9.93
2017-10-09T03:57:36.905Z,10.30
2017-10-09T04:00:04.493Z,9.73
2017-10-09T04:02:32.072Z,10.13
2017-10-09T04:04:59.653Z,9.40
2017-10-09T04:07:27.258Z,9.10
2017-10-09T04:09:54.813Z,9.40
2017-10-09T04:12:22.392Z,9.70
2017-10-09T04:14:49.976Z,9.50
2017-10-09T04:17:17.532Z,9.40
2017-10-09T04:19:49.603Z,9.27
2017-10-09T04:22:24.291Z,9.80
2017-10-09T04:25:02.785Z,8.90
2017-10-09T04:27:41.488Z,8.47
2017-10-09T04:30:09.781Z,9.17
2017-10-09T04:32:37.337Z,9.90
2017-10-09T04:35:04.936Z,8.80
2017-10-09T04:37:32.589Z,9.50
2017-10-09T04:40:00.232Z,9.30
2017-10-09T04:42:27.841Z,9.27
2017-10-09T04:44:56.837Z,9.70
2017-10-09T04:47:24.430Z,9.00
2017-10-09T04:49:52.076Z,8.43
2017-10-09T04:52:19.634Z,9.43
2017-10-09T04:54:47.217Z,9.57
2017-10-09T04:57:14.828Z,9.73
2017-10-09T04:59:42.381Z,8.03
2017-10-09T05:02:10.002Z,8.33
2017-10-09T05:04:37.664Z,9.07
2017-10-09T05:07:05.261Z,8.67
2017-10-09T05:09:32.820Z,9.20
2017-10-09T05:12:02.436Z,8.53
2017-10-09T05:14:30.035Z,8.70
2017-10-09T05:16:58.104Z,9.87
2017-10-09T05:19:25.893Z,9.47
2017-10-09T05:21:53.513Z,8.57
2017-10-09T05:24:21.794Z,7.70
2017-10-09T05:26:49.404Z,6.83
2017-10-09T05:29:16.964Z,7.07
2017-10-09T05:31:44.513Z,6.80
2017-10-09T05:34:12.121Z,6.97
2017-10-09T05:36:39.697Z,8.47
2017-10-09T05:39:07.280Z,7.10
2017-10-09T05:41:35.331Z,7.60
2017-10-09T05:44:03.506Z,6.93
2017-10-09T05:46:31.057Z,6.60
2017-10-09T05:48:59.461Z,6.13
2017-10-09T05:51:27.017Z,7.03
2017-10-09T05:53:54.569Z,7.87
2017-10-09T05:56:22.341Z,7.93
2017-10-09T05:58:49.921Z,9.93
2017-10-09T06:01:17.505Z,8.77
2017-10-09T06:03:45.093Z,9.10
2017-10-09T06:06:12.667Z,8.10
2017-10-09T06:08:40.253Z,8.23
2017-10-09T06:11:08.713Z,7.97
2017-10-09T06:13:36.342Z,7.60
2017-10-09T06:16:03.901Z,7.80
2017-10-09T06:18:31.486Z,7.23
2017-10-09T06:20:59.040Z,7.43
2017-10-09T06:23:27.200Z,8.80
2017-10-09T06:25:54.801Z,7.97
2017-10-09T06:28:22.362Z,7.50
2017-10-09T06:30:49.959Z,7.90
2017-10-09T06:33:18.136Z,8.03
2017-10-09T06:35:45.725Z,7.83
2017-10-09T06:38:13.313Z,7.70
2017-10-09T06:40:41.164Z,8.03
2017-10-09T06:43:08.758Z,8.37
2017-10-09T06:45:37.077Z,6.73
2017-10-09T06:48:04.677Z,7.20
2017-10-09T06:50:32.233Z,7.60
2017-10-09T06:52:59.808Z,7.40
2017-10-09T06:55:27.397Z,7.80
2017-10-09T06:57:54.985Z,9.13
2017-10-09T07:00:22.752Z,7.10
2017-10-09T07:02:50.360Z,8.10
2017-10-09T07:05:17.917Z,8.03
2017-10-09T07:07:45.472Z,7.40
2017-10-09T07:10:13.085Z,8.10
2017-10-09T07:12:41.179Z,7.50
2017-10-09T07:15:08.734Z,7.43
2017-10-09T07:17:36.337Z,7.80
2017-10-09T07:20:03.924Z,6.80
2017-10-09T07:22:31.477Z,7.47
2017-10-09T07:24:59.085Z,7.90
2017-10-09T07:27:26.676Z,6.93
2017-10-09T07:29:54.260Z,7.03
2017-10-09T07:32:21.873Z,7.00
2017-10-09T07:34:49.433Z,7.07
2017-10-09T07:37:17.230Z,7.07
2017-10-09T07:39:44.809Z,8.03
2017-10-09T07:42:12.380Z,7.00
2017-10-09T07:44:39.968Z,6.83
2017-10-09T07:47:07.578Z,6.87
2017-10-09T07:49:35.133Z,7.37
2017-10-09T07:52:03.604Z,7.60
2017-10-09T07:54:31.218Z,7.33
2017-10-09T07:56:59.498Z,7.10
2017-10-09T07:59:27.085Z,7.07
2017-10-09T08:01:54.668Z,6.57
2017-10-09T08:04:22.236Z,7.10
2017-10-09T08:06:49.818Z,6.83
2017-10-09T08:09:17.421Z,5.80
2017-10-09T08:11:45.000Z,6.80
2017-10-09T08:14:12.557Z,6.60
2017-10-09T08:16:40.141Z,7.20
2017-10-09T08:19:07.721Z,7.23
2017-10-09T08:21:35.305Z,6.13
2017-10-09T08:24:02.912Z,7.10
2017-10-09T08:26:30.468Z,6.60
2017-10-09T08:28:58.042Z,6.40
2017-10-09T08:31:26.685Z,7.30
2017-10-09T08:33:54.265Z,6.63
2017-10-09T08:36:21.845Z,6.50
2017-10-09T08:38:49.452Z,6.37
2017-10-09T08:41:17.036Z,5.97
2017-10-09T08:43:44.594Z,6.37
2017-10-09T08:46:12.196Z,5.87
2017-10-09T08:48:39.803Z,6.37
2017-10-09T08:51:07.400Z,7.97
2017-10-09T08:53:35.110Z,7.03
2017-10-09T08:56:02.661Z,6.90
2017-10-09T08:58:30.215Z,6.67
2017-10-09T09:00:57.980Z,7.00
2017-10-09T09:03:25.532Z,7.00
2017-10-09T09:05:53.144Z,6.83
2017-10-09T09:08:20.797Z,6.90
2017-10-09T09:10:48.378Z,6.50
2017-10-09T09:13:15.960Z,6.43
2017-10-09T09:15:43.540Z,6.20
2017-10-09T09:18:11.121Z,6.43
2017-10-09T09:20:38.673Z,6.77
2017-10-09T09:23:06.497Z,6.67
2017-10-09T09:25:34.053Z,6.33
2017-10-09T09:28:01.636Z,6.20
2017-10-09T09:30:29.868Z,6.33
2017-10-09T09:32:57.440Z,5.97
2017-10-09T09:35:25.017Z,5.93
2017-10-09T09:37:53.824Z,6.47
2017-10-09T09:40:21.377Z,6.80
2017-10-09T09:42:48.951Z,5.97
2017-10-09T09:45:16.557Z,6.77
2017-10-09T09:47:44.165Z,6.23
2017-10-09T09:50:11.749Z,5.80
2017-10-09T09:52:39.716Z,6.43
2017-10-09T09:55:07.276Z,6.47
2017-10-09T09:57:35.041Z,6.70
2017-10-09T10:00:02.649Z,5.67
2017-10-09T10:02:30.996Z,6.23
2017-10-09T10:04:58.554Z,5.90
2017-10-09T10:07:26.161Z,6.17
2017-10-09T10:09:53.720Z,5.17
2017-10-09T10:12:21.298Z,6.17
2017-10-09T10:14:48.901Z,6.13
2017-10-09T10:17:16.457Z,6.20
2017-10-09T10:19:44.733Z,6.80
2017-10-09T10:22:12.314Z,6.37
2017-10-09T10:24:39.897Z,6.50
2017-10-09T10:27:07.483Z,5.70
2017-10-09T10:29:35.065Z,5.63
2017-10-09T10:32:02.687Z,6.03
2017-10-09T10:34:30.805Z,5.63
2017-10-09T10:36:58.763Z,5.03
2017-10-09T10:39:26.341Z,5.87
2017-10-09T10:41:53.893Z,5.77
2017-10-09T10:44:21.637Z,5.40
2017-10-09T10:46:49.251Z,5.57
2017-10-09T10:49:16.851Z,5.37
2017-10-09T10:51:44.440Z,5.40
2017-10-09T10:54:12.038Z,5.87
2017-10-09T10:56:39.622Z,5.37
2017-10-09T10:59:07.205Z,5.93
2017-10-09T11:01:37.741Z,5.57
2017-10-09T11:04:05.321Z,5.60
2017-10-09T11:06:32.941Z,6.07
2017-10-09T11:09:00.532Z,5.03
2017-10-09T11:11:28.112Z,5.60
2017-10-09T11:13:55.697Z,5.33
2017-10-09T11:16:23.272Z,5.90
2017-10-09T11:18:50.865Z,5.40
2017-10-09T11:21:18.441Z,5.37
2017-10-09T11:23:45.992Z,5.07
2017-10-09T11:26:13.570Z,5.40
2017-10-09T11:28:41.353Z,5.10
2017-10-09T11:31:09.681Z,5.33
2017-10-09T11:33:37.261Z,4.83
2017-10-09T11:36:04.845Z,5.80
2017-10-09T11:38:32.432Z,5.70
2017-10-09T11:40:59.991Z,5.37
2017-10-09T11:43:27.593Z,5.20
2017-10-09T11:45:55.153Z,5.57
2017-10-09T11:48:22.908Z,5.33
2017-10-09T11:50:50.495Z,5.03
2017-10-09T11:53:18.072Z,6.00
2017-10-09T11:55:45.625Z,5.00
2017-10-09T11:58:13.236Z,6.00
2017-10-09T12:00:40.827Z,6.20
2017-10-09T12:03:08.421Z,5.63
2017-10-09T12:05:36.001Z,5.40
2017-10-09T12:08:03.685Z,5.60
2017-10-09T12:10:32.214Z,5.87
2017-10-09T12:12:59.794Z,6.00
2017-10-09T12:15:27.370Z,5.33
2017-10-09T12:17:54.928Z,6.00
2017-10-09T12:20:22.504Z,6.33
2017-10-09T12:22:50.081Z,5.40
2017-10-09T12:25:17.656Z,5.60
2017-10-09T12:27:45.270Z,5.60
2017-10-09T12:30:12.825Z,6.50
2017-10-09T12:32:40.377Z,5.13
2017-10-09T12:35:08.660Z,5.90
2017-10-09T12:37:36.221Z,5.80
2017-10-09T12:40:03.828Z,5.60
2017-10-09T12:42:33.765Z,5.30
2017-10-09T12:45:01.316Z,5.80
2017-10-09T12:47:28.905Z,5.40
2017-10-09T12:49:56.485Z,5.40
2017-10-09T12:52:24.037Z,4.97
2017-10-09T12:54:51.614Z,5.17
2017-10-09T12:57:22.537Z,5.50
2017-10-09T12:59:50.097Z,6.37
2017-10-09T13:02:17.679Z,5.40
2017-10-09T13:04:45.261Z,5.90
2017-10-09T13:07:12.896Z,5.87
2017-10-09T13:09:41.040Z,5.90
2017-10-09T13:12:08.673Z,5.97
2017-10-09T13:14:36.252Z,5.20
2017-10-09T13:17:03.833Z,5.00
2017-10-09T13:19:31.421Z,5.30
2017-10-09T13:21:59.349Z,6.20
2017-10-09T13:24:26.902Z,4.83
2017-10-09T13:26:54.505Z,5.37
2017-10-09T13:29:22.085Z,5.67
2017-10-09T13:31:49.679Z,5.73
2017-10-09T13:34:17.301Z,5.03
2017-10-09T13:36:44.868Z,4.93
2017-10-09T13:39:12.428Z,5.10
2017-10-09T13:41:40.069Z,5.53
2017-10-09T13:44:07.652Z,5.80
2017-10-09T13:46:35.229Z,5.53
2017-10-09T13:49:02.835Z,4.67
2017-10-09T13:51:30.413Z,4.60
2017-10-09T13:53:57.981Z,5.17
2017-10-09T13:56:25.577Z,4.60
2017-10-09T13:58:53.131Z,4.83
2017-10-09T14:01:20.886Z,4.20
2017-10-09T14:03:48.730Z,4.60
2017-10-09T14:06:16.314Z,4.30
2017-10-09T14:08:43.921Z,4.43
2017-10-09T14:11:11.525Z,4.20
2017-10-09T14:13:39.081Z,4.47
2017-10-09T14:16:06.637Z,4.33
2017-10-09T14:18:34.217Z,4.40
2017-10-09T14:21:01.794Z,4.10
2017-10-09T14:23:29.378Z,3.93
2017-10-09T14:25:56.981Z,3.90
2017-10-09T14:28:24.576Z,3.40
2017-10-09T14:30:52.560Z,3.90
2017-10-09T14:40:42.985Z,3.33
2017-10-09T14:43:10.593Z,3.83
2017-10-09T14:45:38.178Z,3.87
2017-10-09T14:48:06.265Z,3.87
2017-10-09T14:50:33.846Z,3.60
2017-10-09T14:53:01.410Z,3.67
2017-10-09T14:55:29.362Z,3.63
2017-10-09T14:57:56.942Z,5.40
2017-10-09T15:00:24.533Z,4.23
2017-10-09T15:02:52.421Z,4.10
2017-10-09T15:05:20.434Z,3.87
2017-10-09T15:07:48.009Z,4.63
2017-10-09T15:10:15.589Z,4.50
2017-10-09T15:12:43.168Z,3.97
2017-10-09T15:15:10.753Z,4.10
2017-10-09T15:17:38.396Z,4.10
2017-10-09T15:20:06.936Z,4.10
2017-10-09T15:22:34.529Z,4.20
2017-10-09T15:25:02.109Z,4.53
2017-10-09T15:27:29.713Z,4.50
2017-10-09T15:29:57.286Z,3.80
2017-10-09T15:32:24.873Z,4.23
2017-10-09T15:34:53.393Z,4.00
2017-10-09T15:37:20.983Z,4.10
2017-10-09T15:39:49.242Z,3.70
2017-10-09T15:42:16.823Z,3.90
2017-10-09T15:44:44.401Z,3.83
2017-10-09T15:47:11.985Z,3.63
2017-10-09T15:49:39.561Z,4.20
2017-10-09T15:52:07.121Z,3.90
2017-10-09T15:54:34.825Z,4.43
2017-10-09T15:57:02.398Z,3.20
2017-10-09T15:59:29.986Z,3.53
2017-10-09T16:01:57.569Z,3.73
2017-10-09T16:04:25.161Z,4.07
2017-10-09T16:06:52.722Z,3.70
2017-10-09T16:09:20.388Z,3.97
2017-10-09T16:11:47.970Z,4.53
2017-10-09T16:14:15.549Z,3.40
2017-10-09T16:16:43.129Z,4.00
2017-10-09T16:19:10.691Z,4.37
2017-10-09T16:21:38.267Z,3.67
2017-10-09T16:24:05.870Z,3.43
2017-10-09T16:26:33.454Z,3.67
2017-10-09T16:29:01.025Z,3.60
2017-10-09T16:31:28.609Z,3.60
2017-10-09T16:33:56.539Z,3.50
2017-10-09T16:36:24.116Z,4.43
2017-10-09T16:38:51.742Z,3.67
2017-10-09T16:41:19.296Z,3.50
2017-10-09T16:43:46.854Z,3.27
2017-10-09T16:46:14.461Z,3.60
2017-10-09T16:48:42.026Z,3.07
2017-10-09T16:51:09.606Z,3.10
2017-10-09T16:53:38.116Z,3.57
2017-10-09T16:56:06.402Z,3.77
2017-10-09T16:58:33.962Z,4.00
2017-10-09T17:01:01.585Z,3.57
2017-10-09T17:03:29.147Z,3.87
2017-10-09T17:05:56.706Z,3.27
2017-10-09T17:08:24.287Z,3.97
2017-10-09T17:10:52.273Z,3.80
2017-10-09T17:13:19.853Z,4.00
2017-10-09T17:15:47.436Z,3.20
2017-10-09T17:18:14.994Z,4.00
2017-10-09T17:20:42.562Z,3.80
2017-10-09T17:23:10.150Z,3.20
2017-10-09T17:25:37.729Z,3.17
2017-10-09T17:28:05.854Z,3.40
2017-10-09T17:30:33.440Z,3.97
2017-10-09T17:33:00.998Z,3.00
2017-10-09T17:35:28.574Z,3.20
2017-10-09T17:37:56.169Z,3.60
2017-10-09T17:40:23.786Z,3.30
2017-10-09T17:42:51.370Z,3.70
2017-10-09T17:45:18.977Z,3.07
2017-10-09T17:47:46.556Z,3.40
2017-10-09T17:50:14.154Z,3.60
2017-10-09T17:52:42.498Z,3.30
2017-10-09T17:55:10.079Z,3.50
2017-10-09T17:57:37.660Z,3.37
2017-10-09T18:00:05.245Z,3.30
2017-10-09T18:02:32.845Z,3.20
2017-10-09T18:05:00.425Z,3.13
2017-10-09T18:07:28.010Z,3.70
2017-10-09T18:09:55.721Z,3.60
2017-10-09T18:12:23.310Z,3.37
2017-10-09T18:14:52.161Z,3.50
2017-10-09T18:17:20.167Z,3.50
2017-10-09T18:19:47.962Z,3.90
2017-10-09T18:22:15.905Z,3.50
2017-10-09T18:24:43.462Z,3.97
2017-10-09T18:27:11.014Z,3.80
2017-10-09T18:29:39.889Z,3.80
2017-10-09T18:32:07.481Z,4.40
2017-10-09T18:34:35.061Z,3.70
2017-10-09T18:37:02.650Z,3.50
2017-10-09T18:39:30.206Z,3.23
2017-10-09T18:41:57.779Z,3.63
2017-10-09T18:44:25.383Z,3.87
2017-10-09T18:46:52.954Z,3.67
2017-10-09T18:49:20.511Z,3.20
2017-10-09T18:51:48.392Z,3.97
2017-10-09T18:54:15.972Z,3.53
2017-10-09T18:56:43.544Z,3.40
2017-10-09T18:59:11.154Z,3.30
2017-10-09T19:01:38.966Z,3.50
2017-10-09T19:04:07.386Z,2.90
2017-10-09T19:06:35.130Z,3.20
2017-10-09T19:09:06.237Z,3.70
2017-10-09T19:11:34.414Z,3.43
2017-10-09T19:14:01.998Z,3.87
2017-10-09T19:16:29.564Z,4.10
2017-10-09T19:18:57.141Z,3.57
2017-10-09T19:21:24.762Z,3.63
2017-10-09T19:23:52.746Z,3.47
2017-10-09T19:26:20.354Z,3.67
2017-10-09T19:28:48.079Z,3.13
2017-10-09T19:31:15.643Z,3.63
2017-10-09T19:33:43.195Z,3.33
2017-10-09T19:36:10.810Z,4.00
2017-10-09T19:38:38.400Z,3.33
2017-10-09T19:41:05.991Z,3.87
2017-10-09T19:43:33.583Z,3.90
2017-10-09T19:46:02.049Z,4.20
2017-10-09T19:48:29.634Z,4.27
2017-10-09T19:50:57.371Z,4.00
2017-10-09T19:53:25.218Z,3.70
2017-10-09T19:55:52.802Z,3.77
2017-10-09T19:58:20.397Z,4.63
2017-10-09T20:00:48.006Z,4.80
2017-10-09T20:03:15.574Z,5.00
2017-10-09T20:05:43.771Z,4.80
2017-10-09T20:08:11.354Z,5.03
2017-10-09T20:10:38.914Z,5.60
2017-10-09T20:13:06.864Z,5.80
2017-10-09T20:15:34.450Z,6.27
2017-10-09T20:18:02.030Z,7.00
2017-10-09T20:20:29.657Z,6.33
2017-10-09T20:22:57.285Z,6.40
2017-10-09T20:25:24.864Z,7.20
2017-10-09T20:27:52.478Z,7.60
2017-10-09T20:30:20.098Z,7.93
2017-10-09T20:32:47.663Z,7.50
2017-10-09T20:35:15.281Z,8.17
2017-10-09T20:37:43.610Z,8.10
2017-10-09T20:40:11.246Z,7.70
2017-10-09T20:42:39.393Z,7.13
2017-10-09T20:45:06.990Z,8.30
2017-10-09T20:47:34.573Z,8.07
2017-10-09T20:50:03.109Z,8.60
2017-10-09T20:52:30.707Z,8.07
2017-10-09T20:54:58.273Z,7.20
2017-10-09T20:57:25.853Z,7.47
2017-10-09T20:59:53.433Z,7.60
2017-10-09T21:02:20.998Z,7.47
2017-10-09T21:04:48.601Z,7.50
2017-10-09T21:07:16.165Z,7.80
2017-10-09T21:09:43.722Z,8.40
2017-10-09T21:12:11.650Z,7.90
2017-10-09T21:14:39.237Z,8.47
2017-10-09T21:17:06.827Z,7.30
2017-10-09T21:19:34.434Z,7.10
2017-10-09T21:22:02.022Z,8.20
2017-10-09T21:24:29.585Z,7.90
2017-10-09T21:26:57.735Z,7.20
2017-10-09T21:29:25.298Z,8.30
2017-10-09T21:31:52.882Z,8.17
2017-10-09T21:34:20.513Z,7.07
2017-10-09T21:36:48.097Z,8.07
2017-10-09T21:39:15.653Z,6.90
2017-10-09T21:41:43.369Z,7.23
2017-10-09T21:44:10.947Z,7.47
2017-10-09T21:46:38.529Z,7.80
2017-10-09T21:49:06.137Z,7.80
2017-10-09T21:51:34.054Z,6.80
2017-10-09T21:54:01.628Z,7.40
2017-10-09T21:56:29.241Z,7.70
2017-10-09T21:58:56.806Z,7.53
2017-10-09T22:01:24.361Z,7.53
2017-10-09T22:03:52.525Z,7.50
2017-10-09T22:06:21.385Z,7.60
2017-10-09T22:08:48.941Z,7.53
2017-10-09T22:11:16.553Z,7.83
2017-10-09T22:13:44.133Z,6.60
2017-10-09T22:16:12.517Z,7.00
2017-10-09T22:20:50.716Z,7.47
2017-10-09T22:23:18.662Z,7.50
2017-10-09T22:25:46.256Z,7.60
2017-10-09T22:28:13.874Z,8.37
2017-10-09T22:30:41.493Z,6.63
2017-10-09T22:33:15.157Z,7.20
2017-10-09T22:35:42.796Z,7.10
2017-10-09T22:38:10.377Z,6.90
2017-10-09T22:40:42.678Z,7.00
2017-10-09T22:43:11.069Z,7.53
2017-10-09T22:45:39.397Z,6.97
2017-10-09T22:48:06.953Z,7.63
2017-10-09T22:50:34.572Z,7.87
2017-10-09T22:53:02.146Z,7.10
2017-10-09T22:55:29.704Z,6.63
2017-10-09T22:57:57.761Z,7.90
2017-10-09T23:00:25.327Z,6.57
2017-10-09T23:02:52.901Z,7.23
2017-10-09T23:05:20.495Z,7.10
2017-10-09T23:07:48.077Z,6.90
2017-10-09T23:10:15.669Z,6.73
2017-10-09T23:12:43.281Z,8.03
2017-10-09T23:15:10.864Z,7.30
2017-10-09T23:17:38.453Z,7.93
2017-10-09T23:20:06.062Z,7.37
2017-10-09T23:22:33.644Z,6.60
2017-10-09T23:25:01.997Z,7.10
2017-10-09T23:27:30.081Z,7.10
2017-10-09T23:29:57.915Z,6.70
2017-10-09T23:32:25.497Z,6.27
2017-10-09T23:34:53.873Z,6.80
2017-10-09T23:37:21.454Z,6.50
2017-10-09T23:39:49.023Z,7.17
2017-10-09T23:42:16.637Z,6.50
2017-10-09T23:44:44.193Z,6.70
2017-10-09T23:47:11.771Z,5.93
2017-10-09T23:49:39.381Z,6.00
2017-10-09T23:52:06.960Z,5.83
2017-10-09T23:54:34.546Z,6.70
2017-10-09T23:57:02.130Z,6.40
2017-10-09T23:59:29.705Z,6.67
